Geilenkirchen Airport ETNG

Flugplatz Daten

Name: Geilenkirchen Airport

Ident: ETNG

Lat: 50,96080017

Long: 6,04241991

Platzhöhe: 296 ft

IataCode: GKE

City:

Metar

2022/08/12 16:50
ETNG 121650Z 08010KT CAVOK 32/08 Q1016

Taf

2022/08/12 18:58
TAF ETNG 121700Z 1218/1309 CNL 1630 BY ETNG= TAF GVAC 121700Z 1218/1324 03018KT 9999 FEW012 BKN016
Gewünschte Webcam nicht vorhanden? Dann fügen Sie eine hinzu. Sie wird dann so schnell wie möglich freigeschaltet
Url: Title: